sensor_id;sensor_type;location;lat;lon;timestamp;P1;durP1;ratioP1;P2;durP2;ratioP2
41514;SDS011;27247;48.020;16.720;2023-02-15T00:03:50;68.37;;;27.47;;
41514;SDS011;27247;48.020;16.720;2023-02-15T00:08:00;65.93;;;27.88;;
41514;SDS011;27247;48.020;16.720;2023-02-15T00:12:11;76.93;;;29.30;;
41514;SDS011;27247;48.020;16.720;2023-02-15T00:16:21;61.83;;;26.58;;
41514;SDS011;27247;48.020;16.720;2023-02-15T00:20:32;62.78;;;28.00;;
41514;SDS011;27247;48.020;16.720;2023-02-15T00:24:42;73.30;;;30.42;;
41514;SDS011;27247;48.020;16.720;2023-02-15T00:28:53;60.78;;;27.05;;
41514;SDS011;27247;48.020;16.720;2023-02-15T00:33:05;62.85;;;26.25;;
41514;SDS011;27247;48.020;16.720;2023-02-15T00:37:16;68.07;;;26.05;;
41514;SDS011;27247;48.020;16.720;2023-02-15T00:41:26;67.20;;;28.08;;
41514;SDS011;27247;48.020;16.720;2023-02-15T00:45:36;62.00;;;26.48;;
41514;SDS011;27247;48.020;16.720;2023-02-15T00:49:47;63.15;;;27.63;;
41514;SDS011;27247;48.020;16.720;2023-02-15T00:53:57;68.60;;;27.33;;
41514;SDS011;27247;48.020;16.720;2023-02-15T00:58:08;61.55;;;25.38;;
41514;SDS011;27247;48.020;16.720;2023-02-15T01:02:19;67.63;;;27.88;;
41514;SDS011;27247;48.020;16.720;2023-02-15T01:06:29;63.38;;;26.88;;
41514;SDS011;27247;48.020;16.720;2023-02-15T01:10:40;65.68;;;27.33;;
41514;SDS011;27247;48.020;16.720;2023-02-15T01:14:50;64.85;;;27.20;;
41514;SDS011;27247;48.020;16.720;2023-02-15T01:19:01;62.70;;;27.03;;
41514;SDS011;27247;48.020;16.720;2023-02-15T01:23:12;63.42;;;25.60;;
41514;SDS011;27247;48.020;16.720;2023-02-15T01:27:23;61.67;;;26.27;;
41514;SDS011;27247;48.020;16.720;2023-02-15T01:31:33;70.85;;;26.83;;
41514;SDS011;27247;48.020;16.720;2023-02-15T01:35:47;64.43;;;25.35;;
41514;SDS011;27247;48.020;16.720;2023-02-15T01:39:57;63.40;;;26.33;;
41514;SDS011;27247;48.020;16.720;2023-02-15T01:49:19;65.07;;;25.13;;
41514;SDS011;27247;48.020;16.720;2023-02-15T01:54:15;60.47;;;25.80;;
41514;SDS011;27247;48.020;16.720;2023-02-15T01:58:08;65.28;;;26.98;;
41514;SDS011;27247;48.020;16.720;2023-02-15T02:02:19;71.10;;;29.55;;
41514;SDS011;27247;48.020;16.720;2023-02-15T02:06:35;71.10;;;28.95;;
41514;SDS011;27247;48.020;16.720;2023-02-15T02:10:47;67.20;;;25.98;;
41514;SDS011;27247;48.020;16.720;2023-02-15T02:14:58;64.22;;;27.08;;
41514;SDS011;27247;48.020;16.720;2023-02-15T02:28:27;74.22;;;27.45;;
41514;SDS011;27247;48.020;16.720;2023-02-15T02:42:35;67.90;;;26.50;;
41514;SDS011;27247;48.020;16.720;2023-02-15T02:46:53;70.50;;;26.65;;
41514;SDS011;27247;48.020;16.720;2023-02-15T02:51:09;64.93;;;27.90;;
41514;SDS011;27247;48.020;16.720;2023-02-15T02:55:28;64.95;;;26.48;;
41514;SDS011;27247;48.020;16.720;2023-02-15T02:59:42;70.70;;;29.15;;
41514;SDS011;27247;48.020;16.720;2023-02-15T03:03:56;66.10;;;27.02;;
41514;SDS011;27247;48.020;16.720;2023-02-15T03:08:13;68.75;;;28.20;;
41514;SDS011;27247;48.020;16.720;2023-02-15T03:12:35;66.55;;;27.98;;
41514;SDS011;27247;48.020;16.720;2023-02-15T03:16:49;68.23;;;27.97;;
41514;SDS011;27247;48.020;16.720;2023-02-15T03:21:01;78.63;;;28.80;;
41514;SDS011;27247;48.020;16.720;2023-02-15T03:25:21;78.80;;;32.13;;
41514;SDS011;27247;48.020;16.720;2023-02-15T03:29:35;70.82;;;30.08;;
41514;SDS011;27247;48.020;16.720;2023-02-15T03:33:49;68.15;;;27.95;;
41514;SDS011;27247;48.020;16.720;2023-02-15T03:38:05;68.60;;;28.37;;
41514;SDS011;27247;48.020;16.720;2023-02-15T03:42:29;72.13;;;29.00;;
41514;SDS011;27247;48.020;16.720;2023-02-15T03:46:52;62.80;;;26.88;;
41514;SDS011;27247;48.020;16.720;2023-02-15T03:51:09;66.60;;;27.67;;
41514;SDS011;27247;48.020;16.720;2023-02-15T03:55:46;66.05;;;28.48;;
41514;SDS011;27247;48.020;16.720;2023-02-15T04:00:05;62.50;;;26.83;;
41514;SDS011;27247;48.020;16.720;2023-02-15T04:04:54;61.70;;;24.60;;
41514;SDS011;27247;48.020;16.720;2023-02-15T04:09:05;65.07;;;27.52;;
41514;SDS011;27247;48.020;16.720;2023-02-15T04:17:44;59.33;;;25.80;;
41514;SDS011;27247;48.020;16.720;2023-02-15T04:21:54;66.40;;;26.02;;
41514;SDS011;27247;48.020;16.720;2023-02-15T04:26:23;61.53;;;25.75;;
41514;SDS011;27247;48.020;16.720;2023-02-15T04:30:33;69.70;;;26.85;;
41514;SDS011;27247;48.020;16.720;2023-02-15T04:34:44;71.53;;;26.83;;
41514;SDS011;27247;48.020;16.720;2023-02-15T04:38:54;72.70;;;26.40;;
41514;SDS011;27247;48.020;16.720;2023-02-15T04:43:04;74.63;;;27.60;;
41514;SDS011;27247;48.020;16.720;2023-02-15T04:47:15;67.10;;;26.05;;
41514;SDS011;27247;48.020;16.720;2023-02-15T04:51:25;86.00;;;32.03;;
41514;SDS011;27247;48.020;16.720;2023-02-15T04:55:35;64.70;;;26.20;;
41514;SDS011;27247;48.020;16.720;2023-02-15T04:59:46;74.68;;;30.67;;
41514;SDS011;27247;48.020;16.720;2023-02-15T05:03:56;67.22;;;26.60;;
41514;SDS011;27247;48.020;16.720;2023-02-15T05:08:06;66.82;;;26.45;;
41514;SDS011;27247;48.020;16.720;2023-02-15T05:12:17;64.68;;;26.55;;
41514;SDS011;27247;48.020;16.720;2023-02-15T05:16:27;78.63;;;27.63;;
41514;SDS011;27247;48.020;16.720;2023-02-15T05:20:37;72.72;;;28.10;;
41514;SDS011;27247;48.020;16.720;2023-02-15T05:24:48;66.25;;;27.67;;
41514;SDS011;27247;48.020;16.720;2023-02-15T05:29:17;65.15;;;28.88;;
41514;SDS011;27247;48.020;16.720;2023-02-15T05:33:27;72.55;;;29.35;;
41514;SDS011;27247;48.020;16.720;2023-02-15T05:37:38;76.25;;;30.10;;
41514;SDS011;27247;48.020;16.720;2023-02-15T05:41:48;75.68;;;30.20;;
41514;SDS011;27247;48.020;16.720;2023-02-15T05:45:58;80.78;;;30.15;;
41514;SDS011;27247;48.020;16.720;2023-02-15T05:50:09;83.82;;;32.30;;
41514;SDS011;27247;48.020;16.720;2023-02-15T05:54:21;68.90;;;29.90;;
41514;SDS011;27247;48.020;16.720;2023-02-15T05:58:32;76.75;;;31.42;;
41514;SDS011;27247;48.020;16.720;2023-02-15T06:02:44;77.35;;;31.35;;
41514;SDS011;27247;48.020;16.720;2023-02-15T06:06:55;72.57;;;30.65;;
41514;SDS011;27247;48.020;16.720;2023-02-15T06:11:05;67.78;;;27.42;;
41514;SDS011;27247;48.020;16.720;2023-02-15T06:15:16;73.85;;;28.67;;
41514;SDS011;27247;48.020;16.720;2023-02-15T06:19:26;67.43;;;28.17;;
41514;SDS011;27247;48.020;16.720;2023-02-15T06:23:36;76.50;;;30.92;;
41514;SDS011;27247;48.020;16.720;2023-02-15T06:27:47;76.20;;;30.27;;
41514;SDS011;27247;48.020;16.720;2023-02-15T06:31:59;90.07;;;36.05;;
41514;SDS011;27247;48.020;16.720;2023-02-15T06:36:09;78.43;;;32.75;;
41514;SDS011;27247;48.020;16.720;2023-02-15T06:40:20;89.30;;;35.30;;
41514;SDS011;27247;48.020;16.720;2023-02-15T06:44:30;70.90;;;31.85;;
41514;SDS011;27247;48.020;16.720;2023-02-15T06:48:40;67.47;;;27.58;;
41514;SDS011;27247;48.020;16.720;2023-02-15T06:52:55;70.13;;;29.42;;
41514;SDS011;27247;48.020;16.720;2023-02-15T06:57:06;65.10;;;30.08;;
41514;SDS011;27247;48.020;16.720;2023-02-15T07:01:17;69.25;;;31.00;;
41514;SDS011;27247;48.020;16.720;2023-02-15T07:05:27;75.55;;;32.35;;
41514;SDS011;27247;48.020;16.720;2023-02-15T07:09:41;76.50;;;32.75;;
41514;SDS011;27247;48.020;16.720;2023-02-15T07:13:51;75.80;;;32.15;;
41514;SDS011;27247;48.020;16.720;2023-02-15T07:18:02;79.50;;;30.50;;
41514;SDS011;27247;48.020;16.720;2023-02-15T07:22:13;71.65;;;30.63;;
41514;SDS011;27247;48.020;16.720;2023-02-15T07:26:23;84.00;;;32.40;;
41514;SDS011;27247;48.020;16.720;2023-02-15T07:30:34;85.68;;;35.97;;
41514;SDS011;27247;48.020;16.720;2023-02-15T07:34:45;66.75;;;25.52;;
41514;SDS011;27247;48.020;16.720;2023-02-15T07:38:56;61.65;;;28.08;;
41514;SDS011;27247;48.020;16.720;2023-02-15T07:43:06;75.13;;;32.63;;
41514;SDS011;27247;48.020;16.720;2023-02-15T07:47:16;67.18;;;28.98;;
41514;SDS011;27247;48.020;16.720;2023-02-15T07:51:27;76.15;;;31.67;;
41514;SDS011;27247;48.020;16.720;2023-02-15T07:55:37;56.08;;;24.08;;
41514;SDS011;27247;48.020;16.720;2023-02-15T07:59:47;57.00;;;22.90;;
41514;SDS011;27247;48.020;16.720;2023-02-15T08:03:58;52.10;;;22.58;;
41514;SDS011;27247;48.020;16.720;2023-02-15T08:08:09;57.08;;;24.83;;
41514;SDS011;27247;48.020;16.720;2023-02-15T08:12:39;52.00;;;22.48;;
41514;SDS011;27247;48.020;16.720;2023-02-15T08:16:50;58.15;;;24.38;;
41514;SDS011;27247;48.020;16.720;2023-02-15T08:21:09;58.50;;;24.63;;
41514;SDS011;27247;48.020;16.720;2023-02-15T08:25:19;61.13;;;26.27;;
41514;SDS011;27247;48.020;16.720;2023-02-15T08:29:30;51.10;;;24.50;;
41514;SDS011;27247;48.020;16.720;2023-02-15T08:33:41;58.70;;;25.60;;
41514;SDS011;27247;48.020;16.720;2023-02-15T08:37:53;59.80;;;27.00;;
41514;SDS011;27247;48.020;16.720;2023-02-15T08:42:03;57.10;;;25.20;;
41514;SDS011;27247;48.020;16.720;2023-02-15T08:46:14;62.58;;;25.60;;
41514;SDS011;27247;48.020;16.720;2023-02-15T08:50:26;55.78;;;24.88;;
41514;SDS011;27247;48.020;16.720;2023-02-15T08:54:37;60.63;;;25.92;;
41514;SDS011;27247;48.020;16.720;2023-02-15T08:58:47;58.08;;;26.63;;
41514;SDS011;27247;48.020;16.720;2023-02-15T09:02:58;57.28;;;25.48;;
41514;SDS011;27247;48.020;16.720;2023-02-15T09:07:08;62.53;;;25.25;;
41514;SDS011;27247;48.020;16.720;2023-02-15T09:11:29;65.45;;;27.10;;
41514;SDS011;27247;48.020;16.720;2023-02-15T09:15:41;55.60;;;24.33;;
41514;SDS011;27247;48.020;16.720;2023-02-15T09:19:51;55.72;;;24.20;;
41514;SDS011;27247;48.020;16.720;2023-02-15T09:24:03;64.80;;;26.60;;
41514;SDS011;27247;48.020;16.720;2023-02-15T09:28:15;58.83;;;23.90;;
41514;SDS011;27247;48.020;16.720;2023-02-15T09:32:26;60.75;;;28.67;;
41514;SDS011;27247;48.020;16.720;2023-02-15T09:36:37;79.85;;;31.42;;
41514;SDS011;27247;48.020;16.720;2023-02-15T09:40:51;79.50;;;30.92;;
41514;SDS011;27247;48.020;16.720;2023-02-15T09:54:54;64.10;;;25.02;;
41514;SDS011;27247;48.020;16.720;2023-02-15T10:03:59;60.08;;;27.63;;
41514;SDS011;27247;48.020;16.720;2023-02-15T10:13:00;63.60;;;28.05;;
41514;SDS011;27247;48.020;16.720;2023-02-15T10:21:47;63.55;;;27.48;;
41514;SDS011;27247;48.020;16.720;2023-02-15T10:26:27;65.15;;;27.15;;
41514;SDS011;27247;48.020;16.720;2023-02-15T10:30:52;61.90;;;26.55;;
41514;SDS011;27247;48.020;16.720;2023-02-15T10:35:15;60.35;;;24.02;;
41514;SDS011;27247;48.020;16.720;2023-02-15T10:44:20;58.78;;;25.10;;
41514;SDS011;27247;48.020;16.720;2023-02-15T10:48:54;59.17;;;26.23;;
41514;SDS011;27247;48.020;16.720;2023-02-15T10:53:24;55.60;;;25.65;;
41514;SDS011;27247;48.020;16.720;2023-02-15T10:58:08;56.83;;;24.55;;
41514;SDS011;27247;48.020;16.720;2023-02-15T11:02:24;62.70;;;25.23;;
41514;SDS011;27247;48.020;16.720;2023-02-15T11:06:52;56.20;;;26.10;;
41514;SDS011;27247;48.020;16.720;2023-02-15T11:11:06;57.45;;;25.48;;
41514;SDS011;27247;48.020;16.720;2023-02-15T11:15:30;58.65;;;25.70;;
41514;SDS011;27247;48.020;16.720;2023-02-15T11:19:49;55.60;;;26.00;;
41514;SDS011;27247;48.020;16.720;2023-02-15T11:24:13;58.25;;;24.33;;
41514;SDS011;27247;48.020;16.720;2023-02-15T11:32:58;58.13;;;25.45;;
41514;SDS011;27247;48.020;16.720;2023-02-15T11:37:15;52.40;;;22.83;;
41514;SDS011;27247;48.020;16.720;2023-02-15T11:41:31;62.28;;;25.98;;
41514;SDS011;27247;48.020;16.720;2023-02-15T11:45:47;57.95;;;25.60;;
41514;SDS011;27247;48.020;16.720;2023-02-15T11:49:57;64.82;;;29.27;;
41514;SDS011;27247;48.020;16.720;2023-02-15T11:54:10;60.88;;;26.13;;
41514;SDS011;27247;48.020;16.720;2023-02-15T11:58:35;58.58;;;26.90;;
41514;SDS011;27247;48.020;16.720;2023-02-15T12:02:52;63.00;;;27.80;;
41514;SDS011;27247;48.020;16.720;2023-02-15T12:07:13;65.00;;;29.20;;
41514;SDS011;27247;48.020;16.720;2023-02-15T12:11:32;65.80;;;27.95;;
41514;SDS011;27247;48.020;16.720;2023-02-15T12:15:51;60.30;;;27.40;;
41514;SDS011;27247;48.020;16.720;2023-02-15T12:20:20;65.30;;;28.75;;
41514;SDS011;27247;48.020;16.720;2023-02-15T12:24:38;62.47;;;27.20;;
41514;SDS011;27247;48.020;16.720;2023-02-15T12:28:56;71.72;;;28.17;;
41514;SDS011;27247;48.020;16.720;2023-02-15T12:38:04;67.43;;;27.90;;
41514;SDS011;27247;48.020;16.720;2023-02-15T12:42:43;64.30;;;27.23;;
41514;SDS011;27247;48.020;16.720;2023-02-15T12:51:08;67.38;;;26.63;;
41514;SDS011;27247;48.020;16.720;2023-02-15T12:55:25;71.75;;;29.42;;
41514;SDS011;27247;48.020;16.720;2023-02-15T12:59:59;66.93;;;28.35;;
41514;SDS011;27247;48.020;16.720;2023-02-15T13:04:34;65.00;;;29.15;;
41514;SDS011;27247;48.020;16.720;2023-02-15T13:08:49;68.63;;;30.50;;
41514;SDS011;27247;48.020;16.720;2023-02-15T13:13:01;64.57;;;28.63;;
41514;SDS011;27247;48.020;16.720;2023-02-15T13:17:21;66.95;;;27.83;;
41514;SDS011;27247;48.020;16.720;2023-02-15T13:21:40;69.43;;;30.13;;
41514;SDS011;27247;48.020;16.720;2023-02-15T13:25:53;70.15;;;28.27;;
41514;SDS011;27247;48.020;16.720;2023-02-15T13:30:20;68.88;;;27.83;;
41514;SDS011;27247;48.020;16.720;2023-02-15T13:34:33;62.03;;;28.77;;
41514;SDS011;27247;48.020;16.720;2023-02-15T13:43:33;72.75;;;31.20;;
41514;SDS011;27247;48.020;16.720;2023-02-15T13:48:00;66.07;;;30.08;;
41514;SDS011;27247;48.020;16.720;2023-02-15T13:52:25;73.60;;;31.45;;
41514;SDS011;27247;48.020;16.720;2023-02-15T13:56:43;79.68;;;33.03;;
41514;SDS011;27247;48.020;16.720;2023-02-15T14:00:58;79.65;;;34.72;;
41514;SDS011;27247;48.020;16.720;2023-02-15T14:09:46;73.93;;;30.95;;
41514;SDS011;27247;48.020;16.720;2023-02-15T14:27:45;72.35;;;33.58;;
41514;SDS011;27247;48.020;16.720;2023-02-15T14:32:08;76.47;;;33.40;;
41514;SDS011;27247;48.020;16.720;2023-02-15T14:36:22;78.07;;;34.63;;
41514;SDS011;27247;48.020;16.720;2023-02-15T14:45:21;72.72;;;31.38;;
41514;SDS011;27247;48.020;16.720;2023-02-15T14:49:52;82.13;;;33.47;;
41514;SDS011;27247;48.020;16.720;2023-02-15T14:54:03;77.00;;;33.92;;
41514;SDS011;27247;48.020;16.720;2023-02-15T14:58:13;80.97;;;35.25;;
41514;SDS011;27247;48.020;16.720;2023-02-15T15:02:25;77.75;;;34.53;;
41514;SDS011;27247;48.020;16.720;2023-02-15T15:06:57;83.18;;;37.60;;
41514;SDS011;27247;48.020;16.720;2023-02-15T15:15:44;80.80;;;35.25;;
41514;SDS011;27247;48.020;16.720;2023-02-15T15:20:00;84.10;;;38.10;;
41514;SDS011;27247;48.020;16.720;2023-02-15T15:33:03;84.03;;;37.60;;
41514;SDS011;27247;48.020;16.720;2023-02-15T15:42:01;91.13;;;39.05;;
41514;SDS011;27247;48.020;16.720;2023-02-15T15:50:53;83.82;;;36.53;;
41514;SDS011;27247;48.020;16.720;2023-02-15T15:55:05;91.53;;;39.13;;
41514;SDS011;27247;48.020;16.720;2023-02-15T15:59:26;87.13;;;38.75;;
41514;SDS011;27247;48.020;16.720;2023-02-15T16:03:48;88.63;;;39.08;;
41514;SDS011;27247;48.020;16.720;2023-02-15T16:08:01;85.82;;;37.58;;
41514;SDS011;27247;48.020;16.720;2023-02-15T16:12:13;86.50;;;37.67;;
41514;SDS011;27247;48.020;16.720;2023-02-15T16:16:27;90.35;;;38.83;;
41514;SDS011;27247;48.020;16.720;2023-02-15T16:20:39;93.53;;;37.97;;
41514;SDS011;27247;48.020;16.720;2023-02-15T16:29:29;91.93;;;38.00;;
41514;SDS011;27247;48.020;16.720;2023-02-15T16:33:42;84.00;;;36.25;;
41514;SDS011;27247;48.020;16.720;2023-02-15T16:37:53;88.70;;;38.13;;
41514;SDS011;27247;48.020;16.720;2023-02-15T16:42:03;90.55;;;36.28;;
41514;SDS011;27247;48.020;16.720;2023-02-15T16:46:27;90.25;;;38.63;;
41514;SDS011;27247;48.020;16.720;2023-02-15T16:50:40;93.50;;;42.00;;
41514;SDS011;27247;48.020;16.720;2023-02-15T16:55:17;100.72;;;44.95;;
41514;SDS011;27247;48.020;16.720;2023-02-15T16:59:39;99.22;;;41.97;;
41514;SDS011;27247;48.020;16.720;2023-02-15T17:04:13;96.47;;;42.60;;
41514;SDS011;27247;48.020;16.720;2023-02-15T17:08:45;94.88;;;42.00;;
41514;SDS011;27247;48.020;16.720;2023-02-15T17:13:00;98.97;;;39.95;;
41514;SDS011;27247;48.020;16.720;2023-02-15T17:17:20;96.07;;;40.25;;
41514;SDS011;27247;48.020;16.720;2023-02-15T17:21:32;97.75;;;42.92;;
41514;SDS011;27247;48.020;16.720;2023-02-15T17:25:49;95.40;;;43.25;;
41514;SDS011;27247;48.020;16.720;2023-02-15T17:30:04;103.75;;;44.33;;
41514;SDS011;27247;48.020;16.720;2023-02-15T17:34:45;110.45;;;47.40;;
41514;SDS011;27247;48.020;16.720;2023-02-15T17:39:18;116.97;;;49.10;;
41514;SDS011;27247;48.020;16.720;2023-02-15T17:43:30;127.68;;;53.58;;
41514;SDS011;27247;48.020;16.720;2023-02-15T17:47:42;113.80;;;47.95;;
41514;SDS011;27247;48.020;16.720;2023-02-15T17:51:53;116.03;;;50.55;;
41514;SDS011;27247;48.020;16.720;2023-02-15T17:56:04;107.05;;;47.05;;
41514;SDS011;27247;48.020;16.720;2023-02-15T18:00:20;100.65;;;42.78;;
41514;SDS011;27247;48.020;16.720;2023-02-15T18:04:49;101.55;;;43.65;;
41514;SDS011;27247;48.020;16.720;2023-02-15T18:09:19;95.88;;;41.38;;
41514;SDS011;27247;48.020;16.720;2023-02-15T18:13:49;114.20;;;49.03;;
41514;SDS011;27247;48.020;16.720;2023-02-15T18:18:01;134.63;;;56.38;;
41514;SDS011;27247;48.020;16.720;2023-02-15T18:22:15;125.30;;;48.72;;
41514;SDS011;27247;48.020;16.720;2023-02-15T18:26:28;130.75;;;51.35;;
41514;SDS011;27247;48.020;16.720;2023-02-15T18:30:39;141.80;;;55.97;;
41514;SDS011;27247;48.020;16.720;2023-02-15T18:34:55;130.13;;;54.20;;
41514;SDS011;27247;48.020;16.720;2023-02-15T18:43:54;131.82;;;52.53;;
41514;SDS011;27247;48.020;16.720;2023-02-15T18:48:06;136.60;;;53.63;;
41514;SDS011;27247;48.020;16.720;2023-02-15T18:52:21;133.73;;;52.88;;
41514;SDS011;27247;48.020;16.720;2023-02-15T18:56:35;125.57;;;52.42;;
41514;SDS011;27247;48.020;16.720;2023-02-15T19:00:48;118.80;;;50.75;;
41514;SDS011;27247;48.020;16.720;2023-02-15T19:04:59;108.20;;;46.35;;
41514;SDS011;27247;48.020;16.720;2023-02-15T19:09:18;97.28;;;40.50;;
41514;SDS011;27247;48.020;16.720;2023-02-15T19:13:31;106.13;;;41.20;;
41514;SDS011;27247;48.020;16.720;2023-02-15T19:17:41;123.40;;;48.85;;
41514;SDS011;27247;48.020;16.720;2023-02-15T19:21:52;124.25;;;49.65;;
41514;SDS011;27247;48.020;16.720;2023-02-15T19:26:04;127.90;;;51.17;;
41514;SDS011;27247;48.020;16.720;2023-02-15T19:30:17;285.40;;;109.65;;
41514;SDS011;27247;48.020;16.720;2023-02-15T19:34:34;173.57;;;69.05;;
41514;SDS011;27247;48.020;16.720;2023-02-15T19:38:46;140.30;;;55.78;;
41514;SDS011;27247;48.020;16.720;2023-02-15T19:43:01;130.70;;;49.47;;
41514;SDS011;27247;48.020;16.720;2023-02-15T19:47:13;147.80;;;60.47;;
41514;SDS011;27247;48.020;16.720;2023-02-15T19:51:25;135.68;;;53.03;;
41514;SDS011;27247;48.020;16.720;2023-02-15T19:55:36;124.63;;;52.30;;
41514;SDS011;27247;48.020;16.720;2023-02-15T19:59:47;119.40;;;47.65;;
41514;SDS011;27247;48.020;16.720;2023-02-15T20:03:59;109.43;;;45.40;;
41514;SDS011;27247;48.020;16.720;2023-02-15T20:08:13;92.82;;;38.92;;
41514;SDS011;27247;48.020;16.720;2023-02-15T20:12:28;93.20;;;37.15;;
41514;SDS011;27247;48.020;16.720;2023-02-15T20:16:39;98.60;;;38.03;;
41514;SDS011;27247;48.020;16.720;2023-02-15T20:20:52;91.57;;;36.95;;
41514;SDS011;27247;48.020;16.720;2023-02-15T20:25:04;102.38;;;39.90;;
41514;SDS011;27247;48.020;16.720;2023-02-15T20:29:17;98.63;;;36.85;;
41514;SDS011;27247;48.020;16.720;2023-02-15T20:33:29;101.05;;;39.60;;
41514;SDS011;27247;48.020;16.720;2023-02-15T20:37:42;105.57;;;43.15;;
41514;SDS011;27247;48.020;16.720;2023-02-15T20:41:54;102.95;;;43.10;;
41514;SDS011;27247;48.020;16.720;2023-02-15T20:46:05;117.18;;;47.70;;
41514;SDS011;27247;48.020;16.720;2023-02-15T20:50:19;120.50;;;47.72;;
41514;SDS011;27247;48.020;16.720;2023-02-15T20:54:37;119.63;;;45.50;;
41514;SDS011;27247;48.020;16.720;2023-02-15T20:58:48;119.20;;;44.67;;
41514;SDS011;27247;48.020;16.720;2023-02-15T21:03:00;110.82;;;44.28;;
41514;SDS011;27247;48.020;16.720;2023-02-15T21:07:15;123.38;;;46.95;;
41514;SDS011;27247;48.020;16.720;2023-02-15T21:11:27;115.85;;;46.45;;
41514;SDS011;27247;48.020;16.720;2023-02-15T21:15:38;108.70;;;42.13;;
41514;SDS011;27247;48.020;16.720;2023-02-15T21:19:49;119.70;;;46.38;;
41514;SDS011;27247;48.020;16.720;2023-02-15T21:24:00;110.07;;;45.00;;
41514;SDS011;27247;48.020;16.720;2023-02-15T21:28:14;105.97;;;41.45;;
41514;SDS011;27247;48.020;16.720;2023-02-15T21:32:27;96.70;;;39.72;;
41514;SDS011;27247;48.020;16.720;2023-02-15T21:36:38;80.05;;;34.22;;
41514;SDS011;27247;48.020;16.720;2023-02-15T21:40:51;79.70;;;34.10;;
41514;SDS011;27247;48.020;16.720;2023-02-15T21:45:05;78.25;;;34.40;;
41514;SDS011;27247;48.020;16.720;2023-02-15T21:49:41;83.82;;;32.28;;
41514;SDS011;27247;48.020;16.720;2023-02-15T21:53:51;85.53;;;34.20;;
41514;SDS011;27247;48.020;16.720;2023-02-15T21:58:02;91.03;;;34.25;;
41514;SDS011;27247;48.020;16.720;2023-02-15T22:02:23;78.78;;;35.40;;
41514;SDS011;27247;48.020;16.720;2023-02-15T22:06:33;83.60;;;33.28;;
41514;SDS011;27247;48.020;16.720;2023-02-15T22:10:44;77.40;;;32.90;;
41514;SDS011;27247;48.020;16.720;2023-02-15T22:14:56;87.85;;;32.92;;
41514;SDS011;27247;48.020;16.720;2023-02-15T22:19:09;82.25;;;35.28;;
41514;SDS011;27247;48.020;16.720;2023-02-15T22:23:20;92.47;;;35.22;;
41514;SDS011;27247;48.020;16.720;2023-02-15T22:27:33;87.10;;;32.80;;
41514;SDS011;27247;48.020;16.720;2023-02-15T22:31:47;84.20;;;34.78;;
41514;SDS011;27247;48.020;16.720;2023-02-15T22:35:58;98.60;;;37.13;;
41514;SDS011;27247;48.020;16.720;2023-02-15T22:40:12;87.78;;;33.75;;
41514;SDS011;27247;48.020;16.720;2023-02-15T22:44:24;93.28;;;35.85;;
41514;SDS011;27247;48.020;16.720;2023-02-15T22:48:38;95.10;;;37.33;;
41514;SDS011;27247;48.020;16.720;2023-02-15T22:52:49;101.90;;;40.55;;
41514;SDS011;27247;48.020;16.720;2023-02-15T22:57:00;102.13;;;39.65;;
41514;SDS011;27247;48.020;16.720;2023-02-15T23:01:16;100.18;;;38.38;;
41514;SDS011;27247;48.020;16.720;2023-02-15T23:05:33;76.75;;;30.48;;
41514;SDS011;27247;48.020;16.720;2023-02-15T23:09:44;98.78;;;33.65;;
41514;SDS011;27247;48.020;16.720;2023-02-15T23:13:55;106.00;;;38.70;;
41514;SDS011;27247;48.020;16.720;2023-02-15T23:18:11;92.68;;;37.25;;
41514;SDS011;27247;48.020;16.720;2023-02-15T23:22:27;113.65;;;43.85;;
41514;SDS011;27247;48.020;16.720;2023-02-15T23:26:37;138.52;;;52.58;;
41514;SDS011;27247;48.020;16.720;2023-02-15T23:30:48;117.07;;;43.50;;
41514;SDS011;27247;48.020;16.720;2023-02-15T23:34:59;137.48;;;51.15;;
41514;SDS011;27247;48.020;16.720;2023-02-15T23:39:16;180.70;;;63.80;;
41514;SDS011;27247;48.020;16.720;2023-02-15T23:43:49;110.90;;;38.75;;
41514;SDS011;27247;48.020;16.720;2023-02-15T23:48:15;147.93;;;52.78;;
41514;SDS011;27247;48.020;16.720;2023-02-15T23:52:41;101.97;;;37.45;;
41514;SDS011;27247;48.020;16.720;2023-02-15T23:56:52;145.35;;;49.25;;
